Time;durP1;ratioP1;P1;durP2;ratioP2;P2;SDS_P1;SDS_P2;PMS_P1;PMS_P2;Temp;Humidity;BMP_temperature;BMP_pressure;BME280_temperature;BME280_humidity;BME280_pressure;Samples;Min_cycle;Max_cycle;Signal;HPM_P1;HPM_P2
2022/09/11 00:01:06;;;;;;;2.20;0.80;;;;;;;;;;5006922;28;20610;-75
2022/09/11 00:03:32;;;;;;;3.20;1.10;;;;;;;;;;5007295;28;20034;-75
2022/09/11 00:06:05;;;;;;;4.47;1.08;;;;;;;;;;5007001;28;20030;-76
2022/09/11 00:08:32;;;;;;;4.55;1.02;;;;;;;;;;5006677;28;20090;-75
2022/09/11 00:11:23;;;;;;;2.88;0.88;;;;;;;;;;5006831;28;20030;-76
2022/09/11 00:13:50;;;;;;;3.20;0.95;;;;;;;;;;5006441;28;20081;-76
2022/09/11 00:16:32;;;;;;;5.30;1.20;;;;;;;;;;5006866;28;20066;-77
2022/09/11 00:18:59;;;;;;;3.10;1.00;;;;;;;;;;5006895;28;20029;-76
2022/09/11 00:21:26;;;;;;;2.85;0.85;;;;;;;;;;5006695;28;20076;-77
2022/09/11 00:23:52;;;;;;;6.70;0.90;;;;;;;;;;5007002;28;20022;-76
2022/09/11 00:26:18;;;;;;;2.45;0.90;;;;;;;;;;5006664;28;20037;-76
2022/09/11 00:28:45;;;;;;;3.85;0.90;;;;;;;;;;5006442;28;20022;-76
2022/09/11 00:31:16;;;;;;;3.53;1.10;;;;;;;;;;5006537;28;20018;-76
2022/09/11 00:33:42;;;;;;;4.10;1.13;;;;;;;;;;5006914;28;20101;-76
2022/09/11 00:36:12;;;;;;;2.63;0.88;;;;;;;;;;5007866;28;20037;-76
2022/09/11 00:38:38;;;;;;;2.22;0.88;;;;;;;;;;5010140;28;20017;-76
2022/09/11 00:41:12;;;;;;;2.50;1.02;;;;;;;;;;5010085;28;20454;-75
2022/09/11 00:44:01;;;;;;;3.33;1.05;;;;;;;;;;4992260;28;20029;-76
2022/09/11 00:46:43;;;;;;;3.22;1.13;;;;;;;;;;5009546;28;20053;-76
2022/09/11 00:49:38;;;;;;;3.65;1.02;;;;;;;;;;5009794;28;20033;-76
2022/09/11 00:52:10;;;;;;;3.78;1.10;;;;;;;;;;5009322;28;20046;-75
2022/09/11 00:54:48;;;;;;;2.92;0.82;;;;;;;;;;5009969;28;20032;-76
2022/09/11 00:57:17;;;;;;;2.95;1.00;;;;;;;;;;5009532;28;20022;-75
2022/09/11 00:59:44;;;;;;;3.03;1.10;;;;;;;;;;5009849;28;20087;-76
2022/09/11 01:02:12;;;;;;;2.65;1.00;;;;;;;;;;5009361;28;20037;-76
2022/09/11 01:04:38;;;;;;;3.60;1.10;;;;;;;;;;5009877;28;20074;-76
2022/09/11 01:07:03;;;;;;;4.00;1.25;;;;;;;;;;5009381;28;20433;-76
2022/09/11 01:09:30;;;;;;;3.42;1.20;;;;;;;;;;4991975;28;20018;-76
2022/09/11 01:12:17;;;;;;;4.07;1.25;;;;;;;;;;4991738;28;20030;-76
2022/09/11 01:14:54;;;;;;;3.95;1.10;;;;;;;;;;5009775;28;20025;-76
2022/09/11 01:17:28;;;;;;;3.72;0.90;;;;;;;;;;4991559;28;20459;-76
2022/09/11 01:19:59;;;;;;;3.88;0.80;;;;;;;;;;5009393;28;20424;-75
2022/09/11 01:22:46;;;;;;;2.10;0.80;;;;;;;;;;5009258;28;20052;-76
2022/09/11 01:25:36;;;;;;;2.22;1.00;;;;;;;;;;5009528;28;20025;-77
2022/09/11 01:28:23;;;;;;;3.35;0.90;;;;;;;;;;5009112;28;20037;-77
2022/09/11 01:30:55;;;;;;;3.60;1.00;;;;;;;;;;5009313;28;20056;-78
2022/09/11 01:33:29;;;;;;;2.33;0.98;;;;;;;;;;5009137;28;20551;-76
2022/09/11 01:36:01;;;;;;;4.97;1.10;;;;;;;;;;5009228;28;20030;-77
2022/09/11 01:39:05;;;;;;;4.30;1.00;;;;;;;;;;5008845;28;20026;-76
2022/09/11 01:41:39;;;;;;;3.15;0.98;;;;;;;;;;5009474;28;20045;-75
2022/09/11 01:44:16;;;;;;;5.45;1.10;;;;;;;;;;5008860;28;20057;-76
2022/09/11 01:46:45;;;;;;;4.10;1.20;;;;;;;;;;5008388;28;20061;-76
2022/09/11 01:49:24;;;;;;;4.28;1.23;;;;;;;;;;4990541;28;20033;-76
2022/09/11 01:51:54;;;;;;;3.97;1.20;;;;;;;;;;5008937;28;20022;-76
2022/09/11 01:54:25;;;;;;;3.20;0.93;;;;;;;;;;5008792;28;20046;-76
2022/09/11 01:57:03;;;;;;;4.63;1.25;;;;;;;;;;5008867;28;20093;-76
2022/09/11 01:59:43;;;;;;;2.67;0.90;;;;;;;;;;5008739;28;20401;-76
2022/09/11 02:02:12;;;;;;;2.67;0.82;;;;;;;;;;5008718;28;20829;-76
2022/09/11 02:04:45;;;;;;;5.97;1.23;;;;;;;;;;5008981;28;20527;-76
2022/09/11 02:07:20;;;;;;;3.75;1.10;;;;;;;;;;5008734;28;20026;-76
2022/09/11 02:09:58;;;;;;;3.28;0.90;;;;;;;;;;5008340;28;20034;-76
2022/09/11 02:12:28;;;;;;;4.13;1.15;;;;;;;;;;5008346;28;20030;-76
2022/09/11 02:14:54;;;;;;;2.75;1.10;;;;;;;;;;5008612;28;20040;-76
2022/09/11 02:18:04;;;;;;;3.10;1.10;;;;;;;;;;5008477;28;20079;-75
2022/09/11 02:20:30;;;;;;;6.13;1.10;;;;;;;;;;4991061;28;20032;-76
2022/09/11 02:22:56;;;;;;;4.55;1.00;;;;;;;;;;5008511;28;20089;-75
2022/09/11 02:25:21;;;;;;;3.22;1.00;;;;;;;;;;5008562;28;20068;-77
2022/09/11 02:27:46;;;;;;;3.50;0.95;;;;;;;;;;5008116;28;20029;-76
2022/09/11 02:30:13;;;;;;;2.50;0.90;;;;;;;;;;5008185;28;20424;-76
2022/09/11 02:32:42;;;;;;;3.55;0.88;;;;;;;;;;5008403;28;20034;-75
2022/09/11 02:35:09;;;;;;;3.47;1.00;;;;;;;;;;5008477;28;20026;-75
2022/09/11 02:38:24;;;;;;;4.82;1.05;;;;;;;;;;5008316;28;20053;-76
2022/09/11 02:40:58;;;;;;;3.40;0.77;;;;;;;;;;4964331;28;20042;-77
2022/09/11 02:43:49;;;;;;;3.08;0.90;;;;;;;;;;5008008;28;20030;-77
2022/09/11 02:46:23;;;;;;;3.70;1.13;;;;;;;;;;5007909;28;20574;-76
2022/09/11 02:49:06;;;;;;;2.60;1.00;;;;;;;;;;5007443;28;20045;-76
2022/09/11 02:51:58;;;;;;;4.10;1.10;;;;;;;;;;4990640;28;20025;-75
2022/09/11 02:54:55;;;;;;;2.75;1.05;;;;;;;;;;5007891;28;20030;-75
2022/09/11 02:57:35;;;;;;;3.35;1.20;;;;;;;;;;5008094;28;20042;-76
2022/09/11 03:00:04;;;;;;;3.13;1.00;;;;;;;;;;5007455;28;20037;-76
2022/09/11 03:02:35;;;;;;;3.72;0.98;;;;;;;;;;5007967;28;20113;-76
2022/09/11 03:05:00;;;;;;;4.40;1.20;;;;;;;;;;5007678;28;20525;-76
2022/09/11 03:07:26;;;;;;;5.63;1.50;;;;;;;;;;5007839;28;20048;-76
2022/09/11 03:09:51;;;;;;;3.53;1.13;;;;;;;;;;5007481;28;20501;-77
2022/09/11 03:12:17;;;;;;;3.00;1.30;;;;;;;;;;5007722;28;20033;-77
2022/09/11 03:14:43;;;;;;;5.00;1.20;;;;;;;;;;5007809;28;20115;-76
2022/09/11 03:17:08;;;;;;;3.70;1.30;;;;;;;;;;5007947;28;20024;-77
2022/09/11 03:19:34;;;;;;;3.22;1.30;;;;;;;;;;5007295;28;20475;-77
2022/09/11 03:21:59;;;;;;;3.38;1.33;;;;;;;;;;5007703;28;20029;-76
2022/09/11 03:24:25;;;;;;;3.45;1.35;;;;;;;;;;5007374;28;20022;-76
2022/09/11 03:26:51;;;;;;;4.43;1.40;;;;;;;;;;4990049;28;20022;-76
2022/09/11 03:29:16;;;;;;;3.40;1.20;;;;;;;;;;5007149;28;20093;-76
2022/09/11 03:31:41;;;;;;;3.80;1.23;;;;;;;;;;5007734;28;20052;-76
2022/09/11 03:34:07;;;;;;;3.22;1.30;;;;;;;;;;5007740;28;20029;-78
2022/09/11 03:36:33;;;;;;;3.33;1.30;;;;;;;;;;5007565;28;20026;-79
2022/09/11 03:38:59;;;;;;;4.63;1.60;;;;;;;;;;5007088;28;20034;-79
2022/09/11 03:41:25;;;;;;;2.60;1.23;;;;;;;;;;5007490;28;20054;-78
2022/09/11 03:43:50;;;;;;;3.88;1.30;;;;;;;;;;5007025;28;20052;-76
2022/09/11 03:46:16;;;;;;;4.15;1.48;;;;;;;;;;5007354;28;20061;-77
2022/09/11 03:48:44;;;;;;;4.30;1.45;;;;;;;;;;5007050;28;20022;-76
2022/09/11 03:51:10;;;;;;;2.75;1.20;;;;;;;;;;5007383;28;20032;-76
2022/09/11 03:53:37;;;;;;;3.53;1.33;;;;;;;;;;5007076;28;20526;-77
2022/09/11 03:56:05;;;;;;;4.05;1.63;;;;;;;;;;4989830;28;20071;-76
2022/09/11 03:58:30;;;;;;;3.88;1.55;;;;;;;;;;4989060;28;20148;-77
2022/09/11 04:00:56;;;;;;;4.88;1.55;;;;;;;;;;4989500;28;20125;-76
2022/09/11 04:03:21;;;;;;;2.90;1.30;;;;;;;;;;5006965;28;20446;-76
2022/09/11 04:05:59;;;;;;;3.28;1.35;;;;;;;;;;5007165;28;20037;-75
2022/09/11 04:08:25;;;;;;;3.47;1.20;;;;;;;;;;5007096;28;20026;-76
2022/09/11 04:10:57;;;;;;;3.88;1.38;;;;;;;;;;5007896;28;20374;-77
2022/09/11 04:13:32;;;;;;;3.45;1.17;;;;;;;;;;5010253;28;20642;-76
2022/09/11 04:16:02;;;;;;;4.05;1.10;;;;;;;;;;5010386;28;20053;-76
2022/09/11 04:18:29;;;;;;;;;;;;;;;;;;5010656;28;20109;-76
2022/09/11 04:20:54;;;;;;;3.50;1.20;;;;;;;;;;4992796;28;19913;-75
2022/09/11 04:23:20;;;;;;;5.30;1.13;;;;;;;;;;5010528;28;20058;-76
2022/09/11 04:25:45;;;;;;;4.28;1.13;;;;;;;;;;5010232;28;20018;-77
2022/09/11 04:28:11;;;;;;;3.83;1.25;;;;;;;;;;5010293;28;20021;-77
2022/09/11 04:30:37;;;;;;;5.07;1.00;;;;;;;;;;5009735;28;20079;-77
2022/09/11 04:33:04;;;;;;;3.75;1.10;;;;;;;;;;5010118;28;20025;-77
2022/09/11 04:35:30;;;;;;;3.03;1.05;;;;;;;;;;5010076;28;20071;-76
2022/09/11 04:37:56;;;;;;;3.10;0.98;;;;;;;;;;5010255;28;20029;-77
2022/09/11 04:40:21;;;;;;;2.58;0.95;;;;;;;;;;4992505;28;20030;-79
2022/09/11 04:42:46;;;;;;;4.20;1.10;;;;;;;;;;5010180;28;20024;-78
2022/09/11 04:45:12;;;;;;;2.75;1.00;;;;;;;;;;5009736;28;20075;-79
2022/09/11 04:47:37;;;;;;;2.63;1.00;;;;;;;;;;5009993;28;20022;-79
2022/09/11 04:50:03;;;;;;;3.38;1.00;;;;;;;;;;5009586;28;20137;-79
2022/09/11 04:52:28;;;;;;;3.67;1.02;;;;;;;;;;5009979;28;20026;-79
2022/09/11 04:54:53;;;;;;;4.80;0.98;;;;;;;;;;5009835;28;20114;-79
2022/09/11 04:57:19;;;;;;;3.33;1.05;;;;;;;;;;4992202;28;20631;-79
2022/09/11 04:59:49;;;;;;;1.90;1.10;;;;;;;;;;5009758;28;20026;-79
2022/09/11 05:02:15;;;;;;;2.85;1.10;;;;;;;;;;5009817;28;20667;-76
2022/09/11 05:04:40;;;;;;;4.65;1.10;;;;;;;;;;5009475;28;20113;-76
2022/09/11 05:07:06;;;;;;;2.45;1.05;;;;;;;;;;5009762;28;20401;-76
2022/09/11 05:09:31;;;;;;;3.92;1.02;;;;;;;;;;5009242;28;20112;-76
2022/09/11 05:11:56;;;;;;;3.78;1.13;;;;;;;;;;5009710;28;20034;-76
2022/09/11 05:14:22;;;;;;;4.97;1.20;;;;;;;;;;5009673;28;20064;-76
2022/09/11 05:16:47;;;;;;;5.40;1.10;;;;;;;;;;5009733;28;20447;-76
2022/09/11 05:19:13;;;;;;;5.13;1.20;;;;;;;;;;5009456;28;20036;-76
2022/09/11 05:21:38;;;;;;;2.92;1.05;;;;;;;;;;5009123;28;20104;-76
2022/09/11 05:24:03;;;;;;;4.28;1.10;;;;;;;;;;5009435;28;20037;-76
2022/09/11 05:26:34;;;;;;;3.88;1.20;;;;;;;;;;5009471;28;20145;-75
2022/09/11 05:29:06;;;;;;;3.03;1.25;;;;;;;;;;5008991;28;20101;-75
2022/09/11 05:31:32;;;;;;;3.20;0.93;;;;;;;;;;5009168;28;20454;-76
2022/09/11 05:33:59;;;;;;;2.70;0.88;;;;;;;;;;5009547;28;20037;-75
2022/09/11 05:36:25;;;;;;;4.72;1.05;;;;;;;;;;5009249;28;20029;-75
2022/09/11 05:38:51;;;;;;;3.05;0.85;;;;;;;;;;5009430;28;20033;-76
2022/09/11 05:41:17;;;;;;;2.47;0.90;;;;;;;;;;5008724;28;20022;-76
2022/09/11 05:43:43;;;;;;;4.68;1.10;;;;;;;;;;5008934;28;20504;-76
2022/09/11 05:46:11;;;;;;;2.78;0.93;;;;;;;;;;5008876;28;20049;-76
2022/09/11 05:48:37;;;;;;;2.88;1.08;;;;;;;;;;5009288;28;20075;-75
2022/09/11 05:51:06;;;;;;;1.95;0.93;;;;;;;;;;5008722;28;20038;-75
2022/09/11 05:53:32;;;;;;;2.97;1.05;;;;;;;;;;5009028;28;20045;-76
2022/09/11 05:56:05;;;;;;;4.22;1.00;;;;;;;;;;5008890;28;20424;-76
2022/09/11 05:58:31;;;;;;;2.60;1.00;;;;;;;;;;5008632;28;20026;-75
2022/09/11 06:01:11;;;;;;;2.90;0.82;;;;;;;;;;5008344;28;20487;-75
2022/09/11 06:03:38;;;;;;;4.05;1.13;;;;;;;;;;5008790;28;20034;-76
2022/09/11 06:06:08;;;;;;;3.22;0.77;;;;;;;;;;5008728;28;20116;-76
2022/09/11 06:08:34;;;;;;;2.45;0.90;;;;;;;;;;4991335;28;20486;-75
2022/09/11 06:11:01;;;;;;;2.42;1.00;;;;;;;;;;5008450;28;20045;-76
2022/09/11 06:13:32;;;;;;;2.80;0.90;;;;;;;;;;5008902;28;20030;-76
2022/09/11 06:15:58;;;;;;;3.33;0.95;;;;;;;;;;5008400;28;20029;-75
2022/09/11 06:18:24;;;;;;;3.45;1.30;;;;;;;;;;4991104;28;20033;-76
2022/09/11 06:21:00;;;;;;;5.07;1.00;;;;;;;;;;5008146;28;20098;-76
2022/09/11 06:23:26;;;;;;;2.47;1.02;;;;;;;;;;5008640;28;20485;-76
2022/09/11 06:25:53;;;;;;;4.05;1.00;;;;;;;;;;5008441;28;20105;-76
2022/09/11 06:28:22;;;;;;;4.25;1.00;;;;;;;;;;5008458;28;20080;-76
2022/09/11 06:30:50;;;;;;;1.48;0.80;;;;;;;;;;5008001;28;20026;-76
2022/09/11 06:33:19;;;;;;;3.35;1.00;;;;;;;;;;5007671;28;20440;-76
2022/09/11 06:35:54;;;;;;;3.33;1.02;;;;;;;;;;5008077;28;20026;-76
2022/09/11 06:38:20;;;;;;;3.40;0.82;;;;;;;;;;4990542;28;20051;-76
2022/09/11 06:40:45;;;;;;;2.90;0.90;;;;;;;;;;5008080;28;20033;-75
2022/09/11 06:43:11;;;;;;;3.28;0.90;;;;;;;;;;4990516;28;20034;-76
2022/09/11 06:45:37;;;;;;;2.28;0.90;;;;;;;;;;5007882;28;20052;-76
2022/09/11 06:48:03;;;;;;;3.22;0.95;;;;;;;;;;5008342;28;20030;-76
2022/09/11 06:50:28;;;;;;;2.85;0.80;;;;;;;;;;5007615;28;20394;-75
2022/09/11 06:52:54;;;;;;;2.70;0.80;;;;;;;;;;5008213;28;20460;-76
2022/09/11 06:55:19;;;;;;;4.53;0.93;;;;;;;;;;5007749;28;20030;-76
2022/09/11 06:57:44;;;;;;;5.05;1.20;;;;;;;;;;5007924;28;20025;-76
2022/09/11 07:00:10;;;;;;;2.85;0.80;;;;;;;;;;5007895;28;20465;-75
2022/09/11 07:02:36;;;;;;;2.85;1.00;;;;;;;;;;5007768;28;20045;-76
2022/09/11 07:05:01;;;;;;;2.90;0.93;;;;;;;;;;5008069;28;20026;-76
2022/09/11 07:07:26;;;;;;;4.30;1.10;;;;;;;;;;5007487;28;20026;-75
2022/09/11 07:09:52;;;;;;;3.38;0.90;;;;;;;;;;5007542;28;20030;-75
2022/09/11 07:12:22;;;;;;;2.38;0.95;;;;;;;;;;5007428;28;20051;-76
2022/09/11 07:14:48;;;;;;;;;;;;;;;;;;5008263;28;20501;-76
2022/09/11 07:17:13;;;;;;;3.92;0.95;;;;;;;;;;5007608;28;19913;-76
2022/09/11 07:19:39;;;;;;;1.88;0.90;;;;;;;;;;4990155;28;20498;-75
2022/09/11 07:22:04;;;;;;;2.83;1.08;;;;;;;;;;5007721;28;20021;-75
2022/09/11 07:24:29;;;;;;;1.98;0.77;;;;;;;;;;5007789;28;20022;-76
2022/09/11 07:26:55;;;;;;;4.90;0.90;;;;;;;;;;5007315;28;20051;-75
2022/09/11 07:29:21;;;;;;;4.47;1.00;;;;;;;;;;5007360;28;20419;-76
2022/09/11 07:31:46;;;;;;;4.53;0.90;;;;;;;;;;4989628;28;20071;-75
2022/09/11 07:34:12;;;;;;;2.75;1.00;;;;;;;;;;5007489;28;20018;-75
2022/09/11 07:36:37;;;;;;;2.30;1.00;;;;;;;;;;5007453;28;20026;-76
2022/09/11 07:39:03;;;;;;;3.13;0.90;;;;;;;;;;5007698;28;20105;-76
2022/09/11 07:41:30;;;;;;;3.45;1.00;;;;;;;;;;5006958;28;20109;-76
2022/09/11 07:43:59;;;;;;;3.42;0.93;;;;;;;;;;5007403;28;20033;-75
2022/09/11 07:46:25;;;;;;;2.17;0.80;;;;;;;;;;5006833;28;20128;-75
2022/09/11 07:48:51;;;;;;;2.45;1.00;;;;;;;;;;5007161;28;20029;-76
2022/09/11 07:51:18;;;;;;;2.88;0.85;;;;;;;;;;5007239;28;20068;-76
2022/09/11 07:53:45;;;;;;;2.47;0.80;;;;;;;;;;5007633;28;20029;-75
2022/09/11 07:56:14;;;;;;;5.43;0.80;;;;;;;;;;5007311;28;20096;-76
2022/09/11 07:58:41;;;;;;;8.15;1.00;;;;;;;;;;5007161;28;20079;-76
2022/09/11 08:01:09;;;;;;;4.78;1.10;;;;;;;;;;5006619;28;20071;-76
2022/09/11 08:03:36;;;;;;;4.90;0.88;;;;;;;;;;5007306;28;20355;-77
2022/09/11 08:06:07;;;;;;;4.40;0.93;;;;;;;;;;5006966;28;20022;-76
2022/09/11 08:08:33;;;;;;;4.28;0.90;;;;;;;;;;5007085;28;20536;-76
2022/09/11 08:11:17;;;;;;;4.53;1.02;;;;;;;;;;5006921;28;20117;-76
2022/09/11 08:13:49;;;;;;;1.52;0.65;;;;;;;;;;5007043;28;20126;-76
2022/09/11 08:16:15;;;;;;;2.95;0.80;;;;;;;;;;5006823;28;20018;-76
2022/09/11 08:18:41;;;;;;;1.98;0.90;;;;;;;;;;5006954;28;20113;-76
2022/09/11 08:21:08;;;;;;;3.65;1.00;;;;;;;;;;5006555;28;20022;-76
2022/09/11 08:23:35;;;;;;;4.78;0.77;;;;;;;;;;5006794;28;20022;-76
2022/09/11 08:26:14;;;;;;;2.88;0.80;;;;;;;;;;5006959;28;20029;-76
2022/09/11 08:28:43;;;;;;;3.42;0.82;;;;;;;;;;5006703;28;20063;-76
2022/09/11 08:31:10;;;;;;;4.53;1.00;;;;;;;;;;4989344;28;20198;-76
2022/09/11 08:33:37;;;;;;;3.78;0.80;;;;;;;;;;5006636;28;20088;-76
2022/09/11 08:36:04;;;;;;;3.95;0.88;;;;;;;;;;5006823;28;20022;-76
2022/09/11 08:38:32;;;;;;;2.65;0.90;;;;;;;;;;5006411;28;20498;-76
2022/09/11 08:41:07;;;;;;;3.50;0.80;;;;;;;;;;5006568;28;20022;-76
2022/09/11 08:43:38;;;;;;;3.40;0.90;;;;;;;;;;5006431;28;20032;-76
2022/09/11 08:46:08;;;;;;;3.55;0.93;;;;;;;;;;5006576;28;20480;-74
2022/09/11 08:48:58;;;;;;;2.65;0.70;;;;;;;;;;5006589;28;20474;-74
2022/09/11 08:51:27;;;;;;;3.92;1.00;;;;;;;;;;5005685;28;20053;-75
2022/09/11 08:53:54;;;;;;;6.13;0.93;;;;;;;;;;5006348;28;20034;-75
2022/09/11 08:56:22;;;;;;;3.47;0.57;;;;;;;;;;5006514;28;20112;-75
2022/09/11 08:59:09;;;;;;;3.83;0.88;;;;;;;;;;5009637;28;20078;-74
2022/09/11 09:01:40;;;;;;;2.50;0.80;;;;;;;;;;5009638;28;20030;-74
2022/09/11 09:04:42;;;;;;;1.67;0.65;;;;;;;;;;5009708;28;20094;-77
2022/09/11 09:07:28;;;;;;;2.40;1.08;;;;;;;;;;4992108;28;20122;-74
2022/09/11 09:10:26;;;;;;;3.40;0.73;;;;;;;;;;5009589;28;20117;-74
2022/09/11 09:13:32;;;;;;;3.65;0.80;;;;;;;;;;5009172;28;20390;-74
2022/09/11 09:16:34;;;;;;;2.88;0.70;;;;;;;;;;4965541;28;20087;-74
2022/09/11 09:19:45;;;;;;;1.50;0.50;;;;;;;;;;4991909;28;20439;-74
2022/09/11 09:22:25;;;;;;;3.13;0.60;;;;;;;;;;4975242;28;20077;-74
2022/09/11 09:24:59;;;;;;;2.15;0.70;;;;;;;;;;5009540;28;20029;-75
2022/09/11 09:27:38;;;;;;;4.22;0.70;;;;;;;;;;5009186;28;20030;-77
2022/09/11 09:30:12;;;;;;;3.70;0.90;;;;;;;;;;5009415;28;20185;-74
2022/09/11 09:32:46;;;;;;;2.42;0.50;;;;;;;;;;5008970;28;20037;-75
2022/09/11 09:35:39;;;;;;;4.32;0.80;;;;;;;;;;5009201;28;20030;-76
2022/09/11 09:38:26;;;;;;;2.65;0.60;;;;;;;;;;5009174;28;20034;-74
2022/09/11 09:41:10;;;;;;;1.92;0.73;;;;;;;;;;5009292;28;20025;-74
2022/09/11 09:43:48;;;;;;;1.60;0.50;;;;;;;;;;4991428;28;20090;-76
2022/09/11 09:46:33;;;;;;;1.83;0.60;;;;;;;;;;5008919;28;20045;-75
2022/09/11 09:48:59;;;;;;;2.53;0.70;;;;;;;;;;5008929;28;20033;-74
2022/09/11 09:51:25;;;;;;;3.25;0.80;;;;;;;;;;5008779;28;20030;-74
2022/09/11 09:54:00;;;;;;;2.55;0.50;;;;;;;;;;5008969;28;20030;-75
2022/09/11 09:56:29;;;;;;;2.58;0.50;;;;;;;;;;5009098;28;20026;-74
2022/09/11 09:59:07;;;;;;;1.98;0.40;;;;;;;;;;4991189;28;20037;-74
2022/09/11 10:01:50;;;;;;;3.65;0.93;;;;;;;;;;5008785;28;20055;-74
2022/09/11 10:04:18;;;;;;;4.25;0.70;;;;;;;;;;5008507;28;20117;-74
2022/09/11 10:06:46;;;;;;;2.50;0.70;;;;;;;;;;5008990;28;20052;-74
2022/09/11 10:09:22;;;;;;;2.67;0.65;;;;;;;;;;5007329;28;20030;-74
2022/09/11 10:11:54;;;;;;;1.70;0.60;;;;;;;;;;5008734;28;20500;-74
2022/09/11 10:14:21;;;;;;;3.00;0.70;;;;;;;;;;5008601;28;20037;-74
2022/09/11 10:16:49;;;;;;;1.50;0.55;;;;;;;;;;5008750;28;20033;-74
2022/09/11 10:19:42;;;;;;;4.55;0.65;;;;;;;;;;5008459;28;20036;-74
2022/09/11 10:22:28;;;;;;;4.25;0.70;;;;;;;;;;5008338;28;20030;-74
2022/09/11 10:25:08;;;;;;;3.00;0.68;;;;;;;;;;5008364;28;20484;-74
2022/09/11 10:28:03;;;;;;;3.45;0.63;;;;;;;;;;5008416;28;20029;-74
2022/09/11 10:30:32;;;;;;;2.80;1.17;;;;;;;;;;5008232;28;20038;-74
2022/09/11 10:33:01;;;;;;;1.57;0.57;;;;;;;;;;5008240;28;20030;-74
2022/09/11 10:35:28;;;;;;;2.58;0.65;;;;;;;;;;5008391;28;20383;-75
2022/09/11 10:38:17;;;;;;;1.42;0.60;;;;;;;;;;5008291;28;20048;-74
2022/09/11 10:40:57;;;;;;;3.67;0.70;;;;;;;;;;5008304;28;20454;-74
2022/09/11 10:43:27;;;;;;;1.85;0.60;;;;;;;;;;5007893;28;20037;-74
2022/09/11 10:46:05;;;;;;;5.40;0.70;;;;;;;;;;5008014;28;20464;-74
2022/09/11 10:48:31;;;;;;;4.60;0.60;;;;;;;;;;5008054;28;20520;-74
2022/09/11 10:51:05;;;;;;;2.50;0.68;;;;;;;;;;5008209;28;20030;-74
2022/09/11 10:53:38;;;;;;;1.73;0.70;;;;;;;;;;5007823;28;20486;-75
2022/09/11 10:56:04;;;;;;;2.15;0.65;;;;;;;;;;4990407;28;20159;-74
2022/09/11 10:58:37;;;;;;;1.80;0.60;;;;;;;;;;5007577;28;20030;-74
2022/09/11 11:01:02;;;;;;;1.77;0.55;;;;;;;;;;5007841;28;20022;-74
2022/09/11 11:03:28;;;;;;;1.42;0.60;;;;;;;;;;5007796;28;20606;-74
2022/09/11 11:06:24;;;;;;;5.70;3.35;;;;;;;;;;5008132;28;20022;-74
2022/09/11 11:09:11;;;;;;;2.95;1.08;;;;;;;;;;5007660;28;20489;-74
2022/09/11 11:12:02;;;;;;;2.65;0.80;;;;;;;;;;5007630;28;20037;-77
2022/09/11 11:14:27;;;;;;;;;;;;;;;;;;5008063;28;20030;-74
2022/09/11 11:16:56;;;;;;;2.07;0.57;;;;;;;;;;5007786;28;19914;-75
2022/09/11 11:19:24;;;;;;;1.85;0.70;;;;;;;;;;5007318;28;20026;-74
2022/09/11 11:22:26;;;;;;;3.58;0.80;;;;;;;;;;4990210;28;20033;-74
2022/09/11 11:25:00;;;;;;;3.15;0.68;;;;;;;;;;5007701;28;20029;-74
2022/09/11 11:27:35;;;;;;;1.00;0.57;;;;;;;;;;5007599;28;20083;-74
2022/09/11 11:30:22;;;;;;;1.92;0.70;;;;;;;;;;5007240;28;20409;-74
2022/09/11 11:33:09;;;;;;;5.10;0.70;;;;;;;;;;5007453;28;20107;-75
2022/09/11 11:35:56;;;;;;;2.10;0.80;;;;;;;;;;5007451;28;20072;-74
2022/09/11 11:38:59;;;;;;;1.33;0.60;;;;;;;;;;5007462;28;20030;-74
2022/09/11 11:41:43;;;;;;;2.28;0.52;;;;;;;;;;5007408;28;20053;-75
2022/09/11 11:44:14;;;;;;;1.35;0.50;;;;;;;;;;5007260;28;20029;-74
2022/09/11 11:46:54;;;;;;;2.25;0.50;;;;;;;;;;5007101;28;20053;-74
2022/09/11 11:49:36;;;;;;;1.70;0.40;;;;;;;;;;5007058;28;20061;-74
2022/09/11 11:52:21;;;;;;;1.63;0.40;;;;;;;;;;5007230;28;20109;-74
2022/09/11 11:55:12;;;;;;;2.20;0.65;;;;;;;;;;5007302;28;20029;-75
2022/09/11 11:57:41;;;;;;;1.92;0.50;;;;;;;;;;5006969;28;20492;-75
2022/09/11 12:00:13;;;;;;;1.77;0.52;;;;;;;;;;5007047;28;20037;-75
2022/09/11 12:02:42;;;;;;;1.92;0.68;;;;;;;;;;5007050;28;20034;-75
2022/09/11 12:05:16;;;;;;;1.50;0.60;;;;;;;;;;5006817;28;20072;-74
2022/09/11 12:07:46;;;;;;;2.92;0.50;;;;;;;;;;5007623;28;20025;-74
2022/09/11 12:10:37;;;;;;;1.37;0.50;;;;;;;;;;4989190;28;20029;-74
2022/09/11 12:13:06;;;;;;;1.77;0.60;;;;;;;;;;5006938;28;20160;-74
2022/09/11 12:15:33;;;;;;;2.97;0.50;;;;;;;;;;5006863;28;20533;-74
2022/09/11 12:18:23;;;;;;;1.08;0.50;;;;;;;;;;5007150;28;20018;-75
2022/09/11 12:20:49;;;;;;;1.92;0.50;;;;;;;;;;4989251;28;20513;-74
2022/09/11 12:23:29;;;;;;;0.70;0.40;;;;;;;;;;5006666;28;20022;-74
2022/09/11 12:26:14;;;;;;;;;;;;;;;;;;5007077;28;20557;-74
2022/09/11 12:28:40;;;;;;;2.03;0.60;;;;;;;;;;5006780;28;19944;-75
2022/09/11 12:31:14;;;;;;;2.08;0.60;;;;;;;;;;5006704;28;20037;-78
2022/09/11 12:33:39;;;;;;;2.45;0.70;;;;;;;;;;5010087;28;20054;-74
2022/09/11 12:36:09;;;;;;;1.33;0.43;;;;;;;;;;5010254;28;20065;-75
2022/09/11 12:38:39;;;;;;;3.80;0.57;;;;;;;;;;5010239;28;20066;-74
2022/09/11 12:41:21;;;;;;;2.63;0.60;;;;;;;;;;5009837;28;20030;-74
2022/09/11 12:43:48;;;;;;;1.52;0.40;;;;;;;;;;5009743;28;20121;-74
2022/09/11 12:46:19;;;;;;;1.73;0.60;;;;;;;;;;5009683;28;20053;-74
2022/09/11 12:48:57;;;;;;;0.85;0.47;;;;;;;;;;4992425;28;20082;-75
2022/09/11 12:51:31;;;;;;;1.30;0.45;;;;;;;;;;4992148;28;20034;-75
2022/09/11 12:54:01;;;;;;;1.05;0.40;;;;;;;;;;5009764;28;20509;-74
2022/09/11 12:56:31;;;;;;;1.10;0.50;;;;;;;;;;5009872;28;20047;-74
2022/09/11 12:59:06;;;;;;;2.95;0.60;;;;;;;;;;5009686;28;20435;-75
2022/09/11 13:01:35;;;;;;;1.98;0.47;;;;;;;;;;5009706;28;20076;-74
2022/09/11 13:04:10;;;;;;;1.80;0.55;;;;;;;;;;5009639;28;20037;-74
2022/09/11 13:06:43;;;;;;;1.30;0.45;;;;;;;;;;5009618;28;20565;-75
2022/09/11 13:09:21;;;;;;;2.95;0.38;;;;;;;;;;5009796;28;20030;-75
2022/09/11 13:11:51;;;;;;;1.27;0.50;;;;;;;;;;5009411;28;20053;-75
2022/09/11 13:14:26;;;;;;;1.90;0.45;;;;;;;;;;5009542;28;20067;-75
2022/09/11 13:16:52;;;;;;;1.10;0.60;;;;;;;;;;5009505;28;20030;-75
2022/09/11 13:19:20;;;;;;;1.55;0.50;;;;;;;;;;5009508;28;20018;-75
2022/09/11 13:21:55;;;;;;;2.58;0.50;;;;;;;;;;5009511;28;20022;-74
2022/09/11 13:24:29;;;;;;;0.88;0.43;;;;;;;;;;5009411;28;20026;-75
2022/09/11 13:27:22;;;;;;;1.73;0.60;;;;;;;;;;5009350;28;20058;-75
2022/09/11 13:29:48;;;;;;;1.20;0.47;;;;;;;;;;5009285;28;20034;-75
2022/09/11 13:32:15;;;;;;;3.05;0.60;;;;;;;;;;4991668;28;20037;-75
2022/09/11 13:34:47;;;;;;;3.70;0.43;;;;;;;;;;5009116;28;20021;-75
2022/09/11 13:37:25;;;;;;;0.65;0.35;;;;;;;;;;5009213;28;20111;-75
2022/09/11 13:39:51;;;;;;;1.52;0.52;;;;;;;;;;5008997;28;20029;-74
2022/09/11 13:42:20;;;;;;;2.97;0.50;;;;;;;;;;5008904;28;20056;-75
2022/09/11 13:44:48;;;;;;;1.00;0.40;;;;;;;;;;5009053;28;20030;-75
2022/09/11 13:47:20;;;;;;;5.18;0.57;;;;;;;;;;5009181;28;20022;-75
2022/09/11 13:49:46;;;;;;;2.38;0.52;;;;;;;;;;5009026;28;20038;-75
2022/09/11 13:52:13;;;;;;;1.83;0.52;;;;;;;;;;5008667;28;20026;-75
2022/09/11 13:54:48;;;;;;;2.20;0.60;;;;;;;;;;5009123;28;20109;-75
2022/09/11 13:57:28;;;;;;;1.27;0.63;;;;;;;;;;5008793;28;20456;-75
2022/09/11 13:59:55;;;;;;;1.40;0.35;;;;;;;;;;4991500;28;20030;-75
2022/09/11 14:02:24;;;;;;;1.85;0.43;;;;;;;;;;4991281;28;20095;-75
2022/09/11 14:04:51;;;;;;;1.33;0.57;;;;;;;;;;4991176;28;20048;-75
2022/09/11 14:07:26;;;;;;;1.25;0.43;;;;;;;;;;5008773;28;20040;-74
2022/09/11 14:10:07;;;;;;;2.28;0.60;;;;;;;;;;5008631;28;20094;-78
2022/09/11 14:12:45;;;;;;;3.90;0.60;;;;;;;;;;5008263;28;20057;-77
2022/09/11 14:15:21;;;;;;;2.15;0.50;;;;;;;;;;5008671;28;20112;-77
2022/09/11 14:17:46;;;;;;;1.70;0.57;;;;;;;;;;5008873;28;20018;-77
2022/09/11 14:20:18;;;;;;;2.33;0.55;;;;;;;;;;5008891;28;20041;-77
2022/09/11 14:22:45;;;;;;;1.10;0.40;;;;;;;;;;5008780;28;20036;-77
2022/09/11 14:25:20;;;;;;;1.95;0.60;;;;;;;;;;5008579;28;20022;-78
2022/09/11 14:27:45;;;;;;;2.65;0.55;;;;;;;;;;5008585;28;20026;-75
2022/09/11 14:30:28;;;;;;;0.77;0.32;;;;;;;;;;5008340;28;20401;-74
2022/09/11 14:33:25;;;;;;;2.55;0.50;;;;;;;;;;5008296;28;20022;-74
2022/09/11 14:35:57;;;;;;;1.17;0.40;;;;;;;;;;5007984;28;20069;-74
2022/09/11 14:38:23;;;;;;;1.73;0.50;;;;;;;;;;5008478;28;20033;-75
2022/09/11 14:40:55;;;;;;;4.78;0.57;;;;;;;;;;5008243;28;20029;-74
2022/09/11 14:43:25;;;;;;;0.93;0.47;;;;;;;;;;5007885;28;20034;-74
2022/09/11 14:45:53;;;;;;;1.65;0.50;;;;;;;;;;5007877;28;20133;-75
2022/09/11 14:48:19;;;;;;;1.75;0.50;;;;;;;;;;5008211;28;20431;-74
2022/09/11 14:50:45;;;;;;;0.95;0.50;;;;;;;;;;5008001;28;20041;-75
2022/09/11 14:53:17;;;;;;;0.90;0.47;;;;;;;;;;5008258;28;20037;-75
2022/09/11 14:55:43;;;;;;;3.38;0.50;;;;;;;;;;5007372;28;20026;-75
2022/09/11 14:58:08;;;;;;;0.95;0.47;;;;;;;;;;5008210;28;20425;-74
2022/09/11 15:00:33;;;;;;;2.90;0.57;;;;;;;;;;5007986;28;20034;-75
2022/09/11 15:02:59;;;;;;;1.40;0.47;;;;;;;;;;5007567;28;20026;-74
2022/09/11 15:05:25;;;;;;;2.45;0.57;;;;;;;;;;5007781;28;20030;-74
2022/09/11 15:07:51;;;;;;;3.10;0.50;;;;;;;;;;5007879;28;20440;-74
2022/09/11 15:10:17;;;;;;;1.77;0.45;;;;;;;;;;5008178;28;20509;-74
2022/09/11 15:12:43;;;;;;;1.90;0.50;;;;;;;;;;5007471;28;20026;-74